createdAt,value
2023-02-19T00:00:26.776Z,94.55
2023-02-19T00:03:29.596Z,94.51
2023-02-19T00:06:33.740Z,98.75
2023-02-19T00:09:36.442Z,96.73
2023-02-19T00:12:39.156Z,98.73
2023-02-19T00:15:42.047Z,100.00
2023-02-19T00:18:45.570Z,96.84
2023-02-19T00:21:51.188Z,96.18
2023-02-19T00:24:53.909Z,97.21
2023-02-19T00:27:57.171Z,96.82
2023-02-19T00:31:15.878Z,98.03
2023-02-19T00:34:18.717Z,99.10
2023-02-19T00:37:21.314Z,100.00
2023-02-19T00:40:26.263Z,100.00
2023-02-19T00:43:28.868Z,100.00
2023-02-19T00:46:35.612Z,100.00
2023-02-19T00:49:38.397Z,100.00
2023-02-19T00:52:41.088Z,100.00
2023-02-19T00:55:43.766Z,100.00
2023-02-19T00:58:47.201Z,100.00
2023-02-19T01:01:50.350Z,100.00
2023-02-19T01:04:53.623Z,100.00
2023-02-19T01:07:56.350Z,99.72
2023-02-19T01:10:59.865Z,100.00
2023-02-19T01:14:03.626Z,99.80
2023-02-19T01:17:06.490Z,98.58
2023-02-19T01:20:09.618Z,98.70
2023-02-19T01:23:14.487Z,99.24
2023-02-19T01:26:26.036Z,100.00
2023-02-19T01:29:28.814Z,100.00
2023-02-19T01:32:31.545Z,100.00
2023-02-19T01:35:35.045Z,100.00
2023-02-19T01:38:37.747Z,100.00
2023-02-19T01:41:41.997Z,100.00
2023-02-19T01:44:47.900Z,100.00
2023-02-19T01:47:55.908Z,100.00
2023-02-19T01:51:18.100Z,100.00
2023-02-19T01:54:23.055Z,100.00
2023-02-19T01:57:29.411Z,100.00
2023-02-19T02:00:33.777Z,99.48
2023-02-19T02:03:39.081Z,99.03
2023-02-19T02:06:53.337Z,99.26
2023-02-19T02:10:14.536Z,98.39
2023-02-19T02:13:17.485Z,98.65
2023-02-19T02:16:34.336Z,100.00
2023-02-19T02:19:58.773Z,100.00
2023-02-19T02:23:19.640Z,100.00
2023-02-19T02:26:31.759Z,100.00
2023-02-19T02:29:47.055Z,100.00
2023-02-19T02:33:10.997Z,100.00
2023-02-19T02:36:17.882Z,100.00
2023-02-19T02:39:23.503Z,100.00
2023-02-19T02:42:29.042Z,100.00
2023-02-19T02:45:36.192Z,100.00
2023-02-19T02:48:59.145Z,100.00
2023-02-19T02:52:22.271Z,100.00
2023-02-19T02:55:26.127Z,100.00
2023-02-19T02:58:29.526Z,100.00
2023-02-19T03:02:06.628Z,100.00
2023-02-19T03:05:43.292Z,100.00
2023-02-19T03:09:05.304Z,100.00
2023-02-19T03:12:33.076Z,100.00
2023-02-19T03:16:00.984Z,99.16
2023-02-19T03:19:20.239Z,99.92
2023-02-19T03:22:34.248Z,99.87
2023-02-19T03:25:57.020Z,100.00
2023-02-19T03:29:19.148Z,100.00
2023-02-19T03:32:27.805Z,100.00
2023-02-19T03:35:32.324Z,100.00
2023-02-19T03:38:42.585Z,100.00
2023-02-19T03:42:01.399Z,100.00
2023-02-19T03:45:19.850Z,100.00
2023-02-19T03:48:36.487Z,100.00
2023-02-19T03:52:01.857Z,100.00
2023-02-19T03:55:17.515Z,100.00
2023-02-19T03:58:43.501Z,100.00
2023-02-19T04:02:14.126Z,99.67
2023-02-19T04:05:22.714Z,99.13
2023-02-19T04:08:26.203Z,99.41
2023-02-19T04:11:29.860Z,98.19
2023-02-19T04:14:40.110Z,98.67
2023-02-19T04:17:47.796Z,97.88
2023-02-19T04:20:50.879Z,97.92
2023-02-19T04:23:54.182Z,97.26
2023-02-19T04:26:57.115Z,96.82
2023-02-19T04:29:59.897Z,96.97
2023-02-19T04:33:02.896Z,96.48
2023-02-19T04:36:06.103Z,95.63
2023-02-19T04:39:08.967Z,94.73
2023-02-19T04:42:11.684Z,93.10
2023-02-19T04:45:14.522Z,91.80
2023-02-19T04:48:17.216Z,90.08
2023-02-19T04:51:19.943Z,90.17
2023-02-19T04:54:22.744Z,91.46
2023-02-19T04:57:25.492Z,91.03
2023-02-19T05:00:29.480Z,90.74
2023-02-19T05:03:32.510Z,90.34
2023-02-19T05:06:35.300Z,90.45
2023-02-19T05:09:37.959Z,91.00
2023-02-19T05:12:40.653Z,91.43
2023-02-19T05:15:43.398Z,91.89
2023-02-19T05:18:47.009Z,92.66
2023-02-19T05:21:49.781Z,93.26
2023-02-19T05:24:52.524Z,93.71
2023-02-19T05:28:15.186Z,94.05
2023-02-19T05:31:18.757Z,93.92
2023-02-19T05:34:21.634Z,94.42
2023-02-19T05:37:24.409Z,94.02
2023-02-19T05:40:27.107Z,93.96
2023-02-19T05:43:29.842Z,93.92
2023-02-19T05:46:32.783Z,94.18
2023-02-19T05:49:35.998Z,94.10
2023-02-19T05:52:38.676Z,94.51
2023-02-19T05:55:41.496Z,94.29
2023-02-19T05:58:44.443Z,93.93
2023-02-19T06:01:48.084Z,94.25
2023-02-19T06:04:50.765Z,93.59
2023-02-19T06:07:53.555Z,93.34
2023-02-19T06:10:56.390Z,93.68
2023-02-19T06:13:59.454Z,93.96
2023-02-19T06:17:02.203Z,94.43
2023-02-19T06:20:05.812Z,94.18
2023-02-19T06:23:08.621Z,93.93
2023-02-19T06:26:21.496Z,94.09
2023-02-19T06:29:24.543Z,94.07
2023-02-19T06:32:27.538Z,94.71
2023-02-19T06:35:30.408Z,95.69
2023-02-19T06:38:33.214Z,95.91
2023-02-19T06:41:36.216Z,96.55
2023-02-19T06:44:39.074Z,96.33
2023-02-19T06:47:41.836Z,93.61
2023-02-19T06:50:44.711Z,92.81
2023-02-19T06:53:47.637Z,94.57
2023-02-19T06:56:50.414Z,95.17
2023-02-19T06:59:53.161Z,97.02
2023-02-19T07:02:56.788Z,98.97
2023-02-19T07:06:01.056Z,99.96
2023-02-19T07:09:05.454Z,100.00
2023-02-19T07:12:08.362Z,100.00
2023-02-19T07:15:11.166Z,100.00
2023-02-19T07:18:14.098Z,100.00
2023-02-19T07:21:17.807Z,100.00
2023-02-19T07:24:21.855Z,100.00
2023-02-19T07:27:25.157Z,100.00
2023-02-19T07:30:27.938Z,100.00
2023-02-19T07:33:31.038Z,100.00
2023-02-19T07:36:33.794Z,100.00
2023-02-19T07:39:37.660Z,100.00
2023-02-19T07:42:40.554Z,100.00
2023-02-19T07:45:44.044Z,100.00
2023-02-19T07:48:47.546Z,100.00
2023-02-19T07:51:50.458Z,100.00
2023-02-19T07:54:53.168Z,100.00
2023-02-19T07:57:58.747Z,100.00
2023-02-19T08:01:14.298Z,100.00
2023-02-19T08:04:17.254Z,100.00
2023-02-19T08:07:20.542Z,100.00
2023-02-19T08:10:43.537Z,100.00
2023-02-19T08:13:49.174Z,100.00
2023-02-19T08:16:52.945Z,100.00
2023-02-19T08:19:55.803Z,100.00
2023-02-19T08:22:58.713Z,100.00
2023-02-19T08:26:02.614Z,100.00
2023-02-19T08:29:06.137Z,100.00
2023-02-19T08:32:09.320Z,100.00
2023-02-19T08:35:12.058Z,100.00
2023-02-19T08:38:16.708Z,100.00
2023-02-19T08:41:22.507Z,100.00
2023-02-19T08:44:25.347Z,100.00
2023-02-19T08:47:28.271Z,100.00
2023-02-19T08:50:31.218Z,100.00
2023-02-19T08:53:35.280Z,100.00
2023-02-19T08:56:38.009Z,100.00
2023-02-19T08:59:40.830Z,100.00
2023-02-19T09:02:43.713Z,100.00
2023-02-19T09:05:49.647Z,100.00
2023-02-19T09:08:52.601Z,100.00
2023-02-19T09:11:55.412Z,100.00
2023-02-19T09:14:58.165Z,100.00
2023-02-19T09:18:00.875Z,100.00
2023-02-19T09:21:05.313Z,100.00
2023-02-19T09:24:09.601Z,100.00
2023-02-19T09:27:16.927Z,100.00
2023-02-19T09:30:21.604Z,100.00
2023-02-19T09:33:24.413Z,100.00
2023-02-19T09:36:27.413Z,100.00
2023-02-19T09:39:34.405Z,100.00
2023-02-19T09:42:40.794Z,100.00
2023-02-19T09:45:43.981Z,99.95
2023-02-19T09:48:46.939Z,99.51
2023-02-19T09:52:13.190Z,97.17
2023-02-19T09:55:36.823Z,95.15
2023-02-19T09:59:02.961Z,95.35
2023-02-19T10:02:22.995Z,95.79
2023-02-19T10:05:26.706Z,94.37
2023-02-19T10:08:33.152Z,92.92
2023-02-19T10:11:36.080Z,93.66
2023-02-19T10:14:50.826Z,92.75
2023-02-19T10:17:53.800Z,89.35
2023-02-19T10:20:58.714Z,87.84
2023-02-19T10:24:06.449Z,86.93
2023-02-19T10:27:14.470Z,87.27
2023-02-19T10:30:23.662Z,87.67
2023-02-19T10:33:26.959Z,85.69
2023-02-19T10:36:33.164Z,81.88
2023-02-19T10:39:42.879Z,77.98
2023-02-19T10:43:13.250Z,79.19
2023-02-19T10:46:19.271Z,81.23
2023-02-19T10:49:25.334Z,75.56
2023-02-19T10:52:36.831Z,77.78
2023-02-19T10:55:41.464Z,75.96
2023-02-19T10:58:45.246Z,72.16
2023-02-19T11:02:02.230Z,71.01
2023-02-19T11:05:17.322Z,68.95
2023-02-19T11:08:24.400Z,68.01
2023-02-19T11:11:34.030Z,66.74
2023-02-19T11:14:37.175Z,64.11
2023-02-19T11:17:39.932Z,66.86
2023-02-19T11:20:48.818Z,63.79
2023-02-19T11:23:54.832Z,65.78
2023-02-19T11:26:58.723Z,63.69
2023-02-19T11:30:35.885Z,62.50
2023-02-19T11:34:04.568Z,62.98
2023-02-19T11:37:14.955Z,61.76
2023-02-19T11:40:17.832Z,61.77
2023-02-19T11:43:40.337Z,60.43
2023-02-19T11:47:07.695Z,64.07
2023-02-19T11:50:56.808Z,62.59
2023-02-19T11:54:38.315Z,59.68
2023-02-19T11:57:47.734Z,58.90
2023-02-19T12:01:16.390Z,63.08
2023-02-19T12:04:53.456Z,61.87
2023-02-19T12:07:56.288Z,58.34
2023-02-19T12:11:16.624Z,55.28
2023-02-19T12:14:25.837Z,53.22
2023-02-19T12:17:40.941Z,52.67
2023-02-19T12:21:21.445Z,51.13
2023-02-19T12:24:34.608Z,51.02
2023-02-19T12:28:11.260Z,50.22
2023-02-19T12:31:43.582Z,51.45
2023-02-19T12:35:02.488Z,51.41
2023-02-19T12:38:26.684Z,50.55
2023-02-19T12:41:35.753Z,52.34
2023-02-19T12:44:44.091Z,54.33
2023-02-19T12:48:16.357Z,49.66
2023-02-19T12:51:25.067Z,48.11
2023-02-19T12:54:50.436Z,50.46
2023-02-19T12:57:53.632Z,54.09
2023-02-19T13:00:59.924Z,55.85
2023-02-19T13:04:08.853Z,56.14
2023-02-19T13:07:19.292Z,55.56
2023-02-19T13:10:43.734Z,54.59
2023-02-19T13:14:11.119Z,55.89
2023-02-19T13:17:23.189Z,57.77
2023-02-19T13:20:39.599Z,62.34
2023-02-19T13:23:58.570Z,73.42
2023-02-19T13:27:32.429Z,79.75
2023-02-19T13:31:00.430Z,80.71
2023-02-19T13:34:30.783Z,80.33
2023-02-19T13:37:36.680Z,77.31
2023-02-19T13:40:42.759Z,70.51
2023-02-19T13:43:55.851Z,64.74
2023-02-19T13:46:59.239Z,61.05
2023-02-19T13:50:07.044Z,58.19
2023-02-19T13:53:51.880Z,58.48
2023-02-19T13:57:22.932Z,57.38
2023-02-19T14:00:52.131Z,58.78
2023-02-19T14:04:08.884Z,61.25
2023-02-19T14:07:11.618Z,62.88
2023-02-19T14:10:46.366Z,63.95
2023-02-19T14:13:52.394Z,64.89
2023-02-19T14:16:57.552Z,65.84
2023-02-19T14:20:23.322Z,66.08
2023-02-19T14:23:26.415Z,66.67
2023-02-19T14:26:32.153Z,67.30
2023-02-19T14:29:35.380Z,67.21
2023-02-19T14:32:40.194Z,67.80
2023-02-19T14:35:47.972Z,66.87
2023-02-19T14:39:06.407Z,66.46
2023-02-19T14:42:25.353Z,66.25
2023-02-19T14:45:29.622Z,66.12
2023-02-19T14:48:40.312Z,66.46
2023-02-19T14:51:46.069Z,66.82
2023-02-19T14:54:51.733Z,65.82
2023-02-19T14:57:55.656Z,65.57
2023-02-19T15:01:00.273Z,66.33
2023-02-19T15:04:03.556Z,66.31
2023-02-19T15:07:10.813Z,67.61
2023-02-19T15:10:14.980Z,68.55
2023-02-19T15:13:25.682Z,69.16
2023-02-19T15:16:30.599Z,71.57
2023-02-19T15:19:36.513Z,75.45
2023-02-19T15:22:40.614Z,80.40
2023-02-19T15:25:43.785Z,82.90
2023-02-19T15:28:46.746Z,86.08
2023-02-19T15:31:58.380Z,88.07
2023-02-19T15:35:03.585Z,88.71
2023-02-19T15:38:07.099Z,88.31
2023-02-19T15:41:20.431Z,90.70
2023-02-19T15:44:35.702Z,90.36
2023-02-19T15:47:41.836Z,89.15
2023-02-19T15:50:49.916Z,87.13
2023-02-19T15:53:57.683Z,87.81
2023-02-19T15:57:06.031Z,89.46
2023-02-19T16:00:20.228Z,89.75
2023-02-19T16:03:25.497Z,89.07
2023-02-19T16:06:29.363Z,89.71
2023-02-19T16:09:37.824Z,90.31
2023-02-19T16:12:41.452Z,90.51
2023-02-19T16:15:56.493Z,90.58
2023-02-19T16:19:01.277Z,91.19
2023-02-19T16:22:05.360Z,91.11
2023-02-19T16:25:10.089Z,91.21
2023-02-19T16:28:19.760Z,90.65
2023-02-19T16:31:24.905Z,91.00
2023-02-19T16:34:50.747Z,92.00
2023-02-19T16:37:59.079Z,91.58
2023-02-19T16:41:12.359Z,94.22
2023-02-19T16:44:21.783Z,97.86
2023-02-19T16:47:29.246Z,98.66
2023-02-19T16:50:33.397Z,100.00
2023-02-19T16:53:36.517Z,100.00
2023-02-19T16:56:40.013Z,100.00
2023-02-19T16:59:43.300Z,100.00
2023-02-19T17:02:51.767Z,100.00
2023-02-19T17:05:54.881Z,100.00
2023-02-19T17:08:58.556Z,100.00
2023-02-19T17:12:02.605Z,100.00
2023-02-19T17:15:06.037Z,100.00
2023-02-19T17:18:12.185Z,100.00
2023-02-19T17:21:21.288Z,100.00
2023-02-19T17:24:27.327Z,100.00
2023-02-19T17:27:30.055Z,100.00
2023-02-19T17:30:33.919Z,100.00
2023-02-19T17:33:37.936Z,100.00
2023-02-19T17:36:43.378Z,100.00
2023-02-19T17:39:46.418Z,100.00
2023-02-19T17:42:49.599Z,100.00
2023-02-19T17:45:53.210Z,100.00
2023-02-19T17:48:56.608Z,100.00
2023-02-19T17:52:00.186Z,100.00
2023-02-19T17:55:03.295Z,100.00
2023-02-19T17:58:07.101Z,100.00
2023-02-19T18:01:10.905Z,100.00
2023-02-19T18:04:14.249Z,100.00
2023-02-19T18:07:17.321Z,100.00
2023-02-19T18:10:22.450Z,100.00
2023-02-19T18:13:25.580Z,100.00
2023-02-19T18:16:28.627Z,100.00
2023-02-19T18:19:31.791Z,100.00
2023-02-19T18:22:34.767Z,100.00
2023-02-19T18:25:37.815Z,100.00
2023-02-19T18:28:40.979Z,100.00
2023-02-19T18:31:43.803Z,100.00
2023-02-19T18:34:52.027Z,100.00
2023-02-19T18:37:55.191Z,100.00
2023-02-19T18:40:59.281Z,100.00
2023-02-19T18:44:03.381Z,100.00
2023-02-19T18:47:07.431Z,100.00
2023-02-19T18:50:11.785Z,100.00
2023-02-19T18:53:15.275Z,100.00
2023-02-19T18:56:18.583Z,100.00
2023-02-19T18:59:22.088Z,100.00
2023-02-19T19:02:25.737Z,100.00
2023-02-19T19:05:29.605Z,100.00
2023-02-19T19:08:33.012Z,100.00
2023-02-19T19:11:36.548Z,100.00
2023-02-19T19:14:40.254Z,100.00
2023-02-19T19:17:49.464Z,100.00
2023-02-19T19:20:56.679Z,100.00
2023-02-19T19:24:00.247Z,100.00
2023-02-19T19:27:03.545Z,100.00
2023-02-19T19:30:08.490Z,100.00
2023-02-19T19:33:12.132Z,100.00
2023-02-19T19:36:22.322Z,100.00
2023-02-19T19:39:26.171Z,100.00
2023-02-19T19:42:29.533Z,100.00
2023-02-19T19:45:32.896Z,99.88
2023-02-19T19:48:36.114Z,98.96
2023-02-19T19:51:39.543Z,98.30
2023-02-19T19:54:43.814Z,96.84
2023-02-19T19:57:47.853Z,96.55
2023-02-19T20:00:52.078Z,96.03
2023-02-19T20:03:56.306Z,96.11
2023-02-19T20:07:00.477Z,94.38
2023-02-19T20:10:05.606Z,95.51
2023-02-19T20:13:08.855Z,94.31
2023-02-19T20:16:12.629Z,93.16
2023-02-19T20:19:16.715Z,93.00
2023-02-19T20:22:20.533Z,93.51
2023-02-19T20:25:24.773Z,93.54
2023-02-19T20:28:27.665Z,90.97
2023-02-19T20:31:31.732Z,90.08
2023-02-19T20:34:35.277Z,88.20
2023-02-19T20:37:39.863Z,86.39
2023-02-19T20:40:43.336Z,84.34
2023-02-19T20:43:47.040Z,83.24
2023-02-19T20:46:51.956Z,84.11
2023-02-19T20:49:55.295Z,83.88
2023-02-19T20:52:58.669Z,83.59
2023-02-19T20:56:01.676Z,84.76
2023-02-19T20:59:04.705Z,85.43
2023-02-19T21:02:19.555Z,86.06
2023-02-19T21:05:22.978Z,86.92
2023-02-19T21:08:26.607Z,87.83
2023-02-19T21:11:29.865Z,87.15
2023-02-19T21:14:33.126Z,87.69
2023-02-19T21:17:36.444Z,88.40
2023-02-19T21:20:39.659Z,89.21
2023-02-19T21:23:43.606Z,87.94
2023-02-19T21:26:46.861Z,88.45
2023-02-19T21:29:50.061Z,85.30
2023-02-19T21:32:53.130Z,84.68
2023-02-19T21:35:57.901Z,81.07
2023-02-19T21:39:01.587Z,80.55
2023-02-19T21:42:04.807Z,82.66
2023-02-19T21:45:08.085Z,81.44
2023-02-19T21:48:11.172Z,80.90
2023-02-19T21:51:14.325Z,80.53
2023-02-19T21:54:24.862Z,79.93
2023-02-19T21:57:28.067Z,80.91
2023-02-19T22:00:31.670Z,83.21
2023-02-19T22:03:34.603Z,81.86
2023-02-19T22:06:39.483Z,84.02
2023-02-19T22:09:42.345Z,85.06
2023-02-19T22:12:45.505Z,83.08
2023-02-19T22:15:48.469Z,81.22
2023-02-19T22:18:53.571Z,80.65
2023-02-19T22:21:56.506Z,77.88
2023-02-19T22:24:59.266Z,78.59
2023-02-19T22:28:04.596Z,78.02
2023-02-19T22:31:08.368Z,79.34
2023-02-19T22:34:11.325Z,78.56
2023-02-19T22:37:14.271Z,77.86
2023-02-19T22:40:17.255Z,79.17
2023-02-19T22:43:20.121Z,78.17
2023-02-19T22:46:28.976Z,80.23
2023-02-19T22:49:32.054Z,79.33
2023-02-19T22:52:35.005Z,82.51
2023-02-19T22:55:37.768Z,82.02
2023-02-19T22:58:41.182Z,81.01
2023-02-19T23:01:43.967Z,82.63
2023-02-19T23:04:46.975Z,81.40
2023-02-19T23:07:49.711Z,80.75
2023-02-19T23:10:53.019Z,81.09
2023-02-19T23:13:55.869Z,80.67
2023-02-19T23:16:58.968Z,83.46
2023-02-19T23:20:02.116Z,83.54
2023-02-19T23:23:05.377Z,82.69
2023-02-19T23:26:08.384Z,80.39
2023-02-19T23:29:11.312Z,81.19
2023-02-19T23:32:14.280Z,79.37
2023-02-19T23:35:17.264Z,82.30
2023-02-19T23:38:20.226Z,81.95
2023-02-19T23:41:23.028Z,85.04
2023-02-19T23:44:26.100Z,84.82
2023-02-19T23:47:30.664Z,83.18
2023-02-19T23:50:39.863Z,83.63
2023-02-19T23:53:42.771Z,79.51
2023-02-19T23:56:45.564Z,80.83
2023-02-19T23:59:49.404Z,83.83
